createdAt,value
2022-08-05T00:02:50.381Z,100.00
2022-08-05T00:06:05.468Z,100.00
2022-08-05T00:09:50.776Z,100.00
2022-08-05T00:13:04.536Z,100.00
2022-08-05T00:16:08.705Z,100.00
2022-08-05T00:19:25.027Z,100.00
2022-08-05T00:22:36.284Z,100.00
2022-08-05T00:25:50.762Z,100.00
2022-08-05T00:29:37.863Z,99.10
2022-08-05T00:33:07.514Z,99.00
2022-08-05T00:37:10.545Z,98.44
2022-08-05T00:40:03.644Z,97.84
2022-08-05T00:46:43.417Z,97.83
2022-08-05T00:50:08.398Z,97.42
2022-08-05T00:54:00.868Z,96.96
2022-08-05T00:56:51.733Z,96.88
2022-08-05T01:00:05.198Z,96.30
2022-08-05T01:03:33.366Z,94.99
2022-08-05T01:06:48.687Z,94.13
2022-08-05T01:09:56.733Z,93.87
2022-08-05T01:13:13.308Z,93.20
2022-08-05T01:16:44.471Z,93.13
2022-08-05T01:20:14.214Z,93.07
2022-08-05T01:23:39.768Z,92.55
2022-08-05T01:27:26.649Z,92.69
2022-08-05T01:30:53.570Z,92.48
2022-08-05T01:34:29.886Z,91.74
2022-08-05T01:37:44.281Z,91.79
2022-08-05T01:40:59.487Z,90.98
2022-08-05T01:44:19.275Z,90.95
2022-08-05T01:47:43.441Z,90.35
2022-08-05T01:51:14.279Z,88.99
2022-08-05T01:54:18.433Z,89.67
2022-08-05T01:58:29.306Z,89.08
2022-08-05T02:04:55.455Z,88.94
2022-08-05T02:08:05.662Z,88.91
2022-08-05T02:11:16.596Z,89.16
2022-08-05T02:14:44.020Z,88.89
2022-08-05T02:18:32.992Z,88.23
2022-08-05T02:21:38.023Z,89.12
2022-08-05T02:25:04.437Z,89.50
2022-08-05T02:28:29.149Z,89.39
2022-08-05T02:31:54.939Z,89.59
2022-08-05T02:35:19.157Z,90.20
2022-08-05T02:38:43.284Z,90.48
2022-08-05T02:42:00.698Z,91.70
2022-08-05T02:45:08.139Z,91.15
2022-08-05T02:48:18.736Z,91.20
2022-08-05T02:52:04.496Z,91.91
2022-08-05T02:55:12.294Z,94.20
2022-08-05T02:58:27.149Z,97.31
2022-08-05T03:01:38.934Z,100.00
2022-08-05T03:04:42.825Z,100.00
2022-08-05T03:08:04.501Z,100.00
2022-08-05T03:11:55.693Z,100.00
2022-08-05T03:14:48.377Z,100.00
2022-08-05T03:17:57.659Z,100.00
2022-08-05T03:21:04.518Z,100.00
2022-08-05T03:24:27.544Z,100.00
2022-08-05T03:27:58.892Z,100.00
2022-08-05T03:31:00.680Z,100.00
2022-08-05T03:34:06.440Z,100.00
2022-08-05T03:41:03.951Z,100.00
2022-08-05T03:47:30.580Z,100.00
2022-08-05T03:50:43.274Z,100.00
2022-08-05T03:55:50.631Z,100.00
2022-08-05T03:57:41.794Z,100.00
2022-08-05T04:00:51.579Z,100.00
2022-08-05T04:07:58.562Z,100.00
2022-08-05T04:11:10.691Z,100.00
2022-08-05T04:14:18.186Z,100.00
2022-08-05T04:17:55.625Z,100.00
2022-08-05T04:21:00.172Z,100.00
2022-08-05T04:24:19.613Z,100.00
2022-08-05T04:27:57.368Z,100.00
2022-08-05T04:31:01.712Z,100.00
2022-08-05T04:34:33.966Z,100.00
2022-08-05T04:37:42.259Z,100.00
2022-08-05T04:41:10.154Z,100.00
2022-08-05T04:44:10.883Z,100.00
2022-08-05T04:47:23.617Z,100.00
2022-08-05T04:50:34.671Z,100.00
2022-08-05T04:53:45.714Z,100.00
2022-08-05T04:56:48.661Z,100.00
2022-08-05T04:59:58.549Z,100.00
2022-08-05T05:03:03.141Z,100.00
2022-08-05T05:06:37.051Z,100.00
2022-08-05T05:09:38.190Z,100.00
2022-08-05T05:12:52.335Z,100.00
2022-08-05T05:15:59.318Z,100.00
2022-08-05T05:19:23.472Z,100.00
2022-08-05T05:22:33.005Z,100.00
2022-08-05T05:25:50.300Z,100.00
2022-08-05T05:28:54.024Z,100.00
2022-08-05T05:32:15.589Z,100.00
2022-08-05T05:35:34.184Z,100.00
2022-08-05T06:00:34.083Z,100.00
2022-08-05T06:03:54.042Z,100.00
2022-08-05T06:07:04.968Z,100.00
2022-08-05T06:10:10.133Z,100.00
2022-08-05T06:13:21.006Z,100.00
2022-08-05T06:16:32.846Z,100.00
2022-08-05T06:19:57.080Z,100.00
2022-08-05T06:23:04.911Z,100.00
2022-08-05T06:26:24.971Z,100.00
2022-08-05T06:48:37.246Z,100.00
2022-08-05T06:51:29.068Z,96.34
2022-08-05T06:54:41.556Z,94.70
2022-08-05T08:52:05.770Z,94.79
2022-08-05T09:36:55.403Z,92.10
2022-08-05T09:53:54.681Z,92.49
2022-08-05T10:36:43.593Z,93.14
2022-08-05T10:53:17.568Z,96.33
2022-08-05T10:56:26.391Z,96.63
2022-08-05T11:00:03.062Z,97.43
2022-08-05T11:03:24.419Z,98.54
2022-08-05T11:06:47.321Z,97.63
2022-08-05T11:10:10.047Z,95.35
2022-08-05T11:13:12.297Z,96.05
2022-08-05T11:16:56.081Z,95.32
2022-08-05T11:20:16.926Z,95.71
2022-08-05T11:24:04.819Z,96.59
2022-08-05T11:27:51.154Z,96.45
2022-08-05T11:31:56.778Z,93.75
2022-08-05T11:35:09.836Z,94.76
2022-08-05T11:38:29.583Z,95.31
2022-08-05T11:42:01.232Z,95.05
2022-08-05T11:45:27.055Z,95.97
2022-08-05T11:48:39.124Z,94.90
2022-08-05T11:51:49.801Z,97.92
2022-08-05T11:55:07.056Z,96.06
2022-08-05T11:58:11.830Z,96.18
2022-08-05T12:01:21.839Z,95.97
2022-08-05T12:04:29.823Z,94.08
2022-08-05T12:08:03.275Z,95.18
2022-08-05T12:11:39.678Z,95.89
2022-08-05T12:15:19.196Z,93.01
2022-08-05T12:20:26.026Z,95.74
2022-08-05T12:22:52.772Z,94.83
2022-08-05T12:26:13.953Z,94.08
2022-08-05T12:29:23.592Z,94.77
2022-08-05T12:32:32.872Z,92.89
2022-08-05T12:35:39.437Z,92.79
2022-08-05T12:38:54.105Z,90.35
2022-08-05T12:45:42.555Z,87.88
2022-08-05T12:48:53.935Z,89.22
2022-08-05T12:52:23.802Z,88.22
2022-08-05T12:55:41.590Z,88.24
2022-08-05T12:59:00.953Z,88.48
2022-08-05T13:02:35.348Z,86.38
2022-08-05T13:09:37.737Z,87.03
2022-08-05T15:18:38.669Z,73.97
2022-08-05T15:22:02.280Z,75.49
2022-08-05T15:25:53.292Z,77.42
2022-08-05T15:28:58.504Z,76.98
2022-08-05T15:40:59.707Z,89.97
2022-08-05T15:43:57.848Z,96.97
2022-08-05T15:47:04.619Z,96.03
2022-08-05T15:50:09.120Z,95.09
2022-08-05T15:53:20.191Z,90.49
2022-08-05T15:56:22.789Z,87.33
2022-08-05T16:07:53.581Z,86.55
2022-08-05T16:11:40.214Z,88.31
2022-08-05T16:19:09.838Z,88.65
2022-08-05T16:22:15.575Z,89.15
2022-08-05T16:25:26.841Z,87.38
2022-08-05T16:28:44.447Z,85.86
2022-08-05T16:34:51.127Z,82.88
2022-08-05T16:38:03.315Z,83.00
2022-08-05T17:58:02.979Z,78.81
2022-08-05T18:01:49.428Z,79.06
2022-08-05T18:04:55.072Z,78.00
2022-08-05T18:08:25.787Z,77.09
2022-08-05T18:11:36.032Z,75.92
2022-08-05T18:14:45.985Z,74.62
2022-08-05T18:20:56.453Z,75.03
2022-08-05T18:23:58.643Z,76.08
2022-08-05T18:27:05.646Z,76.23
2022-08-05T18:30:30.281Z,78.10
2022-08-05T18:33:59.060Z,78.24
2022-08-05T18:37:12.632Z,79.40
2022-08-05T18:41:52.775Z,78.03
2022-08-05T18:44:11.631Z,78.60
2022-08-05T18:47:22.609Z,78.92
2022-08-05T18:50:42.272Z,78.37
2022-08-05T18:57:52.756Z,80.25
2022-08-05T19:01:01.358Z,80.37
2022-08-05T19:04:12.253Z,80.16
2022-08-05T19:07:18.050Z,80.21
2022-08-05T19:10:27.960Z,80.07
2022-08-05T19:13:38.635Z,80.80
2022-08-05T19:16:47.260Z,81.01
2022-08-05T19:19:59.544Z,81.04
2022-08-05T19:24:03.250Z,81.67
2022-08-05T19:26:31.931Z,81.63
2022-08-05T19:29:47.233Z,81.98
2022-08-05T19:32:51.725Z,82.33
2022-08-05T19:36:02.984Z,81.75
2022-08-05T19:39:07.775Z,82.61
2022-08-05T19:42:34.954Z,83.13
2022-08-05T21:20:53.801Z,95.27
2022-08-05T21:24:00.169Z,95.77
2022-08-05T21:27:14.064Z,96.42
2022-08-05T21:30:18.419Z,96.97
2022-08-05T21:33:39.900Z,96.72
2022-08-05T21:36:42.780Z,97.39
2022-08-05T21:39:53.708Z,97.35
2022-08-05T21:43:05.718Z,97.80
2022-08-05T21:46:11.749Z,98.25
2022-08-05T21:49:48.434Z,98.36
2022-08-05T21:53:08.318Z,97.63
2022-08-05T21:56:28.335Z,97.33
2022-08-05T21:59:48.038Z,97.09
2022-08-05T22:03:09.825Z,96.88
2022-08-05T22:06:14.343Z,97.12
2022-08-05T22:09:45.958Z,96.65
2022-08-05T22:12:53.211Z,96.26
2022-08-05T22:16:41.421Z,96.97
2022-08-05T22:20:01.660Z,97.09
2022-08-05T22:24:00.996Z,97.09
2022-08-05T22:27:17.245Z,97.31
2022-08-05T22:30:32.093Z,97.47
2022-08-05T22:33:55.818Z,97.23
2022-08-05T22:36:58.291Z,97.00
2022-08-05T22:40:07.662Z,96.83
2022-08-05T22:43:13.679Z,97.23
2022-08-05T22:46:23.447Z,97.16
2022-08-05T22:50:19.962Z,96.78
2022-08-05T22:53:02.794Z,95.62
2022-08-05T22:56:10.019Z,96.00
2022-08-05T22:59:46.265Z,95.76
2022-08-05T23:02:46.460Z,96.46
2022-08-05T23:05:54.818Z,97.56
2022-08-05T23:08:57.290Z,96.53
2022-08-05T23:12:25.246Z,95.97
2022-08-05T23:15:35.215Z,95.86
2022-08-05T23:18:42.847Z,95.99
2022-08-05T23:21:48.515Z,96.23
2022-08-05T23:24:55.778Z,96.04
2022-08-05T23:28:00.871Z,96.10
2022-08-05T23:31:17.013Z,96.22
2022-08-05T23:34:24.365Z,96.30
2022-08-05T23:37:36.474Z,96.06
2022-08-05T23:40:50.087Z,96.68
2022-08-05T23:44:06.199Z,96.01
2022-08-05T23:47:14.642Z,96.38
2022-08-05T23:50:26.520Z,96.34
2022-08-05T23:53:28.326Z,96.45
2022-08-05T23:56:52.968Z,96.74
